Time;durP1;ratioP1;P1;durP2;ratioP2;P2;SDS_P1;SDS_P2;PMS_P1;PMS_P2;Temp;Humidity;BMP_temperature;BMP_pressure;BME280_temperature;BME280_humidity;BME280_pressure;Samples;Min_cycle;Max_cycle;Signal;HPM_P1;HPM_P2
2021/04/29 00:01:43;;;;;;;4.40;3.10;;;;;;;6.86;57.55;95689.48;1655609;86;21209;-80
2021/04/29 00:04:10;;;;;;;4.83;2.98;;;;;;;6.85;57.40;95684.50;1647063;85;21263;-80
2021/04/29 00:06:36;;;;;;;4.72;2.65;;;;;;;6.84;57.59;95685.48;1616939;87;21208;-81
2021/04/29 00:09:04;;;;;;;4.40;2.92;;;;;;;6.83;57.80;95687.72;1618145;87;21173;-80
2021/04/29 00:11:30;;;;;;;4.00;2.52;;;;;;;6.80;57.86;95683.70;1623554;87;21124;-78
2021/04/29 00:13:56;;;;;;;3.27;2.70;;;;;;;6.76;57.81;95682.95;1645479;85;21145;-78
2021/04/29 00:16:22;;;;;;;4.97;3.30;;;;;;;6.76;58.20;95682.95;1646665;85;21163;-78
2021/04/29 00:18:48;;;;;;;5.60;3.05;;;;;;;6.74;58.12;95684.91;1648059;85;21114;-78
2021/04/29 00:21:14;;;;;;;3.40;3.10;;;;;;;6.72;58.17;95685.58;1648065;85;21440;-78
2021/04/29 00:23:40;;;;;;;3.77;2.90;;;;;;;6.69;58.17;95682.05;1645349;85;21151;-78
2021/04/29 00:26:06;;;;;;;4.47;3.10;;;;;;;6.68;58.61;95681.75;1622422;86;21366;-78
2021/04/29 00:28:32;;;;;;;4.33;2.83;;;;;;;6.67;58.21;95679.66;1649006;85;21414;-81
2021/04/29 00:30:58;;;;;;;4.97;2.85;;;;;;;6.66;58.66;95680.60;1644354;85;21187;-80
2021/04/29 00:33:25;;;;;;;4.92;2.98;;;;;;;6.64;58.75;95678.69;1664935;84;21163;-81
2021/04/29 00:35:51;;;;;;;4.40;3.00;;;;;;;6.62;58.85;95677.57;1641017;84;21148;-80
2021/04/29 00:38:17;;;;;;;2.92;2.62;;;;;;;6.61;59.01;95681.13;1667451;84;21185;-80
2021/04/29 00:40:44;;;;;;;3.62;3.22;;;;;;;6.59;58.96;95677.92;1664947;84;21131;-81
2021/04/29 00:43:12;;;;;;;4.17;3.00;;;;;;;6.56;59.09;95682.64;1664308;84;21165;-80
2021/04/29 00:45:39;;;;;;;5.17;3.65;;;;;;;6.55;59.21;95683.12;1664966;84;21387;-80
2021/04/29 00:48:06;;;;;;;5.25;3.87;;;;;;;6.53;59.51;95682.99;1665886;84;21151;-78
2021/04/29 00:50:32;;;;;;;4.95;3.52;;;;;;;6.53;59.32;95681.70;1667925;84;21180;-78
2021/04/29 00:52:58;;;;;;;3.80;3.08;;;;;;;6.52;59.92;95680.09;1668107;84;21117;-78
2021/04/29 00:55:24;;;;;;;3.37;2.75;;;;;;;6.49;59.66;95676.06;1644552;84;21146;-78
2021/04/29 00:57:50;;;;;;;4.47;3.60;;;;;;;6.49;60.29;95672.19;1665702;84;21167;-78
2021/04/29 01:00:17;;;;;;;4.92;4.30;;;;;;;6.47;60.17;95665.59;1669736;84;21144;-80
2021/04/29 01:02:52;;;;;;;4.35;3.72;;;;;;;6.42;60.12;95660.97;1669450;84;21999;-80
2021/04/29 01:05:22;;;;;;;3.85;3.37;;;;;;;6.45;60.54;95667.06;1664897;84;21198;-78
2021/04/29 01:07:52;;;;;;;5.05;3.60;;;;;;;6.43;60.69;95664.34;1669178;84;21159;-77
2021/04/29 01:10:34;;;;;;;3.83;3.30;;;;;;;6.44;60.28;95668.53;1665672;84;21178;-78
2021/04/29 01:13:26;;;;;;;4.45;3.65;;;;;;;6.49;60.78;95659.77;1668620;84;21632;-78
2021/04/29 01:15:53;;;;;;;;;;;;;;;6.53;60.66;95669.59;1652676;84;21659;-77
2021/04/29 01:18:22;;;;;;;4.70;3.90;;;;;;;6.54;60.66;95669.91;1671585;84;20571;-78
2021/04/29 01:21:03;;;;;;;4.62;4.12;;;;;;;6.54;60.64;95668.62;1666244;84;21280;-78
2021/04/29 01:23:49;;;;;;;4.62;3.40;;;;;;;6.55;60.61;95665.55;1667169;84;21250;-78
2021/04/29 01:26:40;;;;;;;5.72;4.05;;;;;;;6.57;60.83;95664.39;1654962;85;21488;-79
2021/04/29 01:29:10;;;;;;;5.37;3.90;;;;;;;6.55;60.67;95667.64;1672224;84;21135;-79
2021/04/29 01:31:39;;;;;;;4.70;3.27;;;;;;;6.52;60.87;95669.28;1652775;85;21155;-79
2021/04/29 01:34:11;;;;;;;4.05;3.65;;;;;;;6.52;60.96;95665.91;1680439;84;21157;-79
2021/04/29 01:36:37;;;;;;;4.62;3.98;;;;;;;6.49;60.96;95670.09;1679913;84;21300;-79
2021/04/29 01:39:05;;;;;;;5.42;3.60;;;;;;;6.48;61.09;95672.36;1680169;84;21385;-79
2021/04/29 01:41:32;;;;;;;6.22;3.77;;;;;;;6.46;61.15;95671.25;1678505;84;21096;-79
2021/04/29 01:43:58;;;;;;;6.40;3.85;;;;;;;6.41;61.10;95665.81;1681170;84;21962;-79
2021/04/29 01:46:24;;;;;;;4.00;3.20;;;;;;;6.43;61.40;95672.09;1652417;84;21161;-79
2021/04/29 01:48:51;;;;;;;5.22;3.55;;;;;;;6.40;61.79;95667.28;1657035;85;21508;-78
2021/04/29 01:51:16;;;;;;;4.50;3.75;;;;;;;6.37;61.75;95667.14;1680804;84;21498;-78
2021/04/29 01:53:43;;;;;;;4.53;3.92;;;;;;;6.35;61.94;95658.78;1684152;84;21116;-78
2021/04/29 01:56:09;;;;;;;5.00;4.03;;;;;;;6.33;61.93;95663.28;1679620;84;21100;-78
2021/04/29 01:58:35;;;;;;;5.72;4.15;;;;;;;6.32;62.01;95660.39;1682478;84;22083;-78
2021/04/29 02:01:01;;;;;;;4.20;3.25;;;;;;;6.35;62.11;95663.13;1681736;84;21138;-78
2021/04/29 02:03:27;;;;;;;5.12;3.75;;;;;;;6.38;62.23;95658.91;1629343;84;21187;-78
2021/04/29 02:05:57;;;;;;;5.30;3.62;;;;;;;6.42;62.07;95663.55;1680127;84;21140;-78
2021/04/29 02:08:23;;;;;;;4.35;3.95;;;;;;;6.45;62.10;95658.52;1655265;85;21138;-78
2021/04/29 02:10:50;;;;;;;5.20;3.62;;;;;;;6.44;62.22;95650.47;1678898;84;21626;-78
2021/04/29 02:13:16;;;;;;;5.20;3.87;;;;;;;6.45;62.30;95652.07;1679377;84;21404;-78
2021/04/29 02:15:46;;;;;;;4.40;3.65;;;;;;;6.45;62.28;95649.48;1682198;84;21113;-78
2021/04/29 02:18:13;;;;;;;5.05;3.87;;;;;;;6.43;62.51;95646.28;1656399;84;21140;-78
2021/04/29 02:20:42;;;;;;;4.30;3.37;;;;;;;6.41;62.53;95652.11;1680323;84;21127;-78
2021/04/29 02:23:10;;;;;;;4.72;3.83;;;;;;;6.41;62.62;95648.23;1679320;84;21095;-78
2021/04/29 02:25:36;;;;;;;4.60;3.60;;;;;;;6.41;62.80;95653.40;1679528;84;21254;-79
2021/04/29 02:28:03;;;;;;;4.10;3.37;;;;;;;6.39;63.08;95652.77;1678598;84;21151;-80
2021/04/29 02:30:32;;;;;;;4.37;3.75;;;;;;;6.35;63.27;95647.16;1667537;84;22045;-79
2021/04/29 02:33:00;;;;;;;5.67;3.50;;;;;;;6.32;63.32;95648.28;1647194;85;21275;-79
2021/04/29 02:35:26;;;;;;;5.90;3.98;;;;;;;6.32;63.55;95648.77;1665933;84;21122;-79
2021/04/29 02:37:53;;;;;;;4.67;3.80;;;;;;;6.31;63.47;95649.75;1668600;83;21337;-78
2021/04/29 02:40:20;;;;;;;5.80;4.30;;;;;;;6.34;63.48;95654.56;1670454;84;21345;-78
2021/04/29 02:42:46;;;;;;;4.42;3.87;;;;;;;6.38;63.50;95652.46;1671713;84;21651;-77
2021/04/29 02:45:15;;;;;;;5.00;3.55;;;;;;;6.42;63.46;95640.32;1670351;84;21667;-78
2021/04/29 02:47:43;;;;;;;5.40;3.70;;;;;;;6.45;63.46;95643.84;1669330;84;21166;-78
2021/04/29 02:50:12;;;;;;;5.97;3.90;;;;;;;6.46;63.58;95638.19;1671372;84;21247;-78
2021/04/29 02:52:38;;;;;;;4.70;3.65;;;;;;;6.42;63.68;95633.87;1669939;84;21122;-78
2021/04/29 02:55:06;;;;;;;5.80;5.20;;;;;;;6.46;63.92;95636.41;1674459;84;21144;-81
2021/04/29 02:57:33;;;;;;;4.00;3.22;;;;;;;6.44;64.09;95638.86;1674757;84;21181;-80
2021/04/29 02:59:59;;;;;;;4.30;3.20;;;;;;;6.46;64.23;95633.83;1669217;84;21153;-81
2021/04/29 03:02:25;;;;;;;4.70;4.20;;;;;;;6.46;64.43;95639.48;1647519;85;21144;-78
2021/04/29 03:04:51;;;;;;;5.53;3.62;;;;;;;6.42;64.17;95635.65;1613933;87;21306;-78
2021/04/29 03:07:19;;;;;;;6.55;4.40;;;;;;;6.41;64.41;95637.43;1610976;87;21153;-80
2021/04/29 03:09:45;;;;;;;4.05;3.65;;;;;;;6.40;64.45;95633.24;1643654;85;21138;-78
2021/04/29 03:12:11;;;;;;;4.33;3.50;;;;;;;6.40;64.96;95628.58;1641034;85;21264;-78
2021/04/29 03:14:37;;;;;;;4.45;3.30;;;;;;;6.39;64.90;95629.06;1642745;85;21136;-79
2021/04/29 03:17:03;;;;;;;5.42;4.00;;;;;;;6.44;65.17;95636.27;1641303;86;21124;-79
2021/04/29 03:19:30;;;;;;;6.00;4.55;;;;;;;6.48;64.75;95633.16;1641891;85;21877;-79
2021/04/29 03:21:56;;;;;;;5.10;4.37;;;;;;;6.51;64.76;95638.00;1642391;85;21134;-79
2021/04/29 03:24:21;;;;;;;4.42;3.83;;;;;;;6.55;64.73;95641.83;1641108;86;21295;-79
2021/04/29 03:26:47;;;;;;;4.25;3.85;;;;;;;6.57;64.83;95642.95;1638125;85;21365;-79
2021/04/29 03:29:14;;;;;;;4.85;4.35;;;;;;;6.57;64.92;95642.95;1644548;85;21381;-79
2021/04/29 03:31:40;;;;;;;6.53;4.62;;;;;;;6.56;64.77;95640.05;1650001;85;21171;-79
2021/04/29 03:34:06;;;;;;;4.22;3.65;;;;;;;6.54;64.89;95637.64;1644061;85;21166;-79
2021/04/29 03:36:34;;;;;;;5.00;4.00;;;;;;;6.54;65.23;95636.36;1673144;84;21237;-78
2021/04/29 03:39:00;;;;;;;4.00;3.60;;;;;;;6.54;65.18;95638.13;1672094;84;21249;-78
2021/04/29 03:41:26;;;;;;;5.05;4.37;;;;;;;6.53;65.28;95632.66;1678604;84;21186;-78
2021/04/29 03:43:52;;;;;;;5.20;4.28;;;;;;;6.54;65.64;95635.06;1677154;84;21153;-78
2021/04/29 03:46:18;;;;;;;5.62;4.15;;;;;;;6.56;65.65;95641.34;1675774;84;21167;-77
2021/04/29 03:48:44;;;;;;;5.12;4.33;;;;;;;6.60;65.42;95638.23;1616690;85;21135;-78
2021/04/29 03:51:10;;;;;;;5.92;4.58;;;;;;;6.68;65.43;95640.44;1674045;84;21238;-77
2021/04/29 03:53:36;;;;;;;5.72;4.62;;;;;;;6.74;65.55;95643.59;1672295;84;22190;-78
2021/04/29 03:56:02;;;;;;;5.87;4.75;;;;;;;6.77;65.54;95645.34;1674798;84;21136;-78
2021/04/29 03:58:28;;;;;;;6.03;4.72;;;;;;;6.82;65.67;95643.51;1646602;85;21272;-77
2021/04/29 04:00:54;;;;;;;6.30;4.55;;;;;;;6.84;65.85;95646.25;1618321;87;21145;-80
2021/04/29 04:03:20;;;;;;;5.85;4.42;;;;;;;6.85;66.15;95639.31;1673140;84;21115;-80
2021/04/29 04:05:46;;;;;;;6.42;4.70;;;;;;;6.86;66.17;95636.55;1674403;84;21261;-80
2021/04/29 04:08:13;;;;;;;4.50;4.00;;;;;;;6.89;66.25;95633.60;1670541;84;21393;-80
2021/04/29 04:10:39;;;;;;;5.33;4.28;;;;;;;6.91;66.83;95631.64;1672912;84;22189;-81
2021/04/29 04:13:05;;;;;;;6.65;4.72;;;;;;;6.97;67.07;95637.88;1674264;84;21098;-81
2021/04/29 04:15:31;;;;;;;7.67;4.83;;;;;;;7.03;66.46;95633.80;1673975;84;21163;-80
2021/04/29 04:17:57;;;;;;;5.17;4.47;;;;;;;7.12;66.87;95640.47;1674588;84;21180;-80
2021/04/29 04:20:23;;;;;;;6.30;4.72;;;;;;;7.23;66.84;95633.56;1653987;85;21359;-80
2021/04/29 04:22:50;;;;;;;6.87;5.33;;;;;;;7.33;66.64;95635.41;1647148;85;21421;-81
2021/04/29 04:25:16;;;;;;;7.33;5.28;;;;;;;7.42;66.86;95637.38;1643526;85;21178;-80
2021/04/29 04:27:42;;;;;;;8.93;5.60;;;;;;;7.52;66.78;95646.47;1672292;84;21488;-81
2021/04/29 04:30:10;;;;;;;7.20;5.03;;;;;;;7.59;66.68;95643.95;1678263;84;21525;-78
2021/04/29 04:32:36;;;;;;;6.97;4.50;;;;;;;7.64;66.92;95640.33;1682385;84;21280;-78
2021/04/29 04:35:02;;;;;;;7.53;5.12;;;;;;;7.77;67.08;95640.48;1690867;84;21591;-78
2021/04/29 04:37:29;;;;;;;6.58;5.00;;;;;;;7.77;67.08;95640.48;1684244;84;21169;-78
2021/04/29 04:39:55;;;;;;;6.28;5.20;;;;;;;7.83;67.32;95637.19;1687238;84;21123;-78
2021/04/29 04:42:21;;;;;;;8.20;5.83;;;;;;;7.91;67.03;95632.38;1693041;84;22080;-79
2021/04/29 04:44:47;;;;;;;9.08;5.12;;;;;;;8.00;67.28;95631.30;1681441;84;21446;-79
2021/04/29 04:47:13;;;;;;;5.92;4.75;;;;;;;8.13;67.61;95630.14;1686816;84;21154;-79
2021/04/29 04:49:39;;;;;;;5.75;4.30;;;;;;;8.26;67.52;95633.31;1690489;84;21147;-79
2021/04/29 04:52:05;;;;;;;6.65;5.55;;;;;;;8.44;67.49;95627.73;1683200;84;21156;-78
2021/04/29 04:54:33;;;;;;;7.30;5.03;;;;;;;8.58;67.61;95624.27;1685853;84;21115;-79
2021/04/29 04:56:59;;;;;;;7.97;5.65;;;;;;;8.71;68.07;95630.05;1688017;84;21336;-79
2021/04/29 04:59:25;;;;;;;8.20;5.75;;;;;;;8.84;67.54;95627.55;1682404;84;21339;-79
2021/04/29 05:01:51;;;;;;;9.10;6.37;;;;;;;9.00;67.48;95623.38;1685076;84;21142;-78
2021/04/29 05:04:17;;;;;;;8.58;6.20;;;;;;;9.17;67.68;95620.48;1687126;84;21449;-78
2021/04/29 05:06:43;;;;;;;9.63;6.78;;;;;;;9.39;66.94;95616.79;1694554;84;21090;-79
2021/04/29 05:09:10;;;;;;;6.95;5.62;;;;;;;9.51;67.51;95615.26;1686638;84;21103;-78
2021/04/29 05:11:36;;;;;;;7.75;5.97;;;;;;;9.63;67.04;95612.42;1686012;84;21307;-77
2021/04/29 05:14:02;;;;;;;7.65;5.00;;;;;;;9.74;66.93;95606.34;1688915;84;21273;-79
2021/04/29 05:16:28;;;;;;;7.67;5.85;;;;;;;9.85;66.52;95600.59;1684071;84;21144;-78
2021/04/29 05:18:54;;;;;;;9.38;6.15;;;;;;;9.96;66.58;95596.64;1688020;84;21131;-79
2021/04/29 05:21:20;;;;;;;7.75;6.70;;;;;;;10.03;66.45;95599.54;1684762;84;21151;-79
2021/04/29 05:23:46;;;;;;;7.28;5.70;;;;;;;10.13;65.96;95597.88;1682854;84;21341;-81
2021/04/29 05:26:13;;;;;;;5.72;4.85;;;;;;;10.26;65.64;95597.13;1688660;84;21135;-78
2021/04/29 05:28:40;;;;;;;7.25;6.05;;;;;;;10.35;66.25;95603.70;1688222;84;21481;-78
2021/04/29 05:31:06;;;;;;;9.68;6.95;;;;;;;10.47;65.45;95604.22;1678278;84;21165;-78
2021/04/29 05:33:32;;;;;;;9.03;6.72;;;;;;;10.65;65.49;95592.42;1679704;84;22571;-79
2021/04/29 05:35:58;;;;;;;10.10;7.15;;;;;;;10.79;65.80;95590.12;1679649;84;21131;-79
2021/04/29 05:38:24;;;;;;;8.65;6.87;;;;;;;10.93;65.82;95596.09;1679107;84;21177;-80
2021/04/29 05:40:50;;;;;;;10.63;7.78;;;;;;;11.08;65.52;95592.27;1680995;84;21156;-80
2021/04/29 05:43:16;;;;;;;10.05;8.98;;;;;;;11.28;65.11;95596.61;1679169;84;21484;-79
2021/04/29 05:45:42;;;;;;;10.18;7.30;;;;;;;11.47;64.83;95595.74;1674446;84;21147;-80
2021/04/29 05:48:08;;;;;;;11.35;8.08;;;;;;;11.64;64.05;95596.07;1676893;84;21140;-80
2021/04/29 05:50:34;;;;;;;9.78;8.63;;;;;;;11.80;64.31;95596.92;1683440;84;21258;-80
2021/04/29 05:53:00;;;;;;;10.05;6.87;;;;;;;11.96;63.97;95595.64;1683495;84;21121;-78
2021/04/29 05:55:26;;;;;;;9.58;6.55;;;;;;;12.13;63.84;95590.73;1679139;84;21143;-79
2021/04/29 05:57:55;;;;;;;8.83;6.80;;;;;;;12.27;63.45;95589.13;1680568;84;21488;-81
2021/04/29 06:00:20;;;;;;;6.70;5.87;;;;;;;12.42;63.38;95594.04;1676992;84;21136;-79
2021/04/29 06:02:47;;;;;;;8.00;5.70;;;;;;;12.51;62.96;95591.45;1649332;85;21169;-78
2021/04/29 06:05:13;;;;;;;7.72;5.92;;;;;;;12.63;62.41;95588.95;1676991;84;21133;-79
2021/04/29 06:07:39;;;;;;;8.38;6.10;;;;;;;12.68;61.98;95592.22;1680642;84;21175;-78
2021/04/29 06:10:06;;;;;;;6.70;5.05;;;;;;;12.73;62.21;95581.97;1679760;84;21288;-76
2021/04/29 06:12:32;;;;;;;6.30;4.95;;;;;;;12.78;61.57;95578.20;1677940;84;21124;-79
2021/04/29 06:14:59;;;;;;;7.00;5.17;;;;;;;12.86;61.64;95574.83;1691443;84;21141;-78
2021/04/29 06:17:24;;;;;;;7.42;5.55;;;;;;;12.91;61.39;95576.78;1689320;84;21141;-80
2021/04/29 06:19:51;;;;;;;7.00;4.87;;;;;;;12.98;61.40;95576.20;1649545;85;21181;-81
2021/04/29 06:22:17;;;;;;;6.03;4.35;;;;;;;12.99;61.32;95567.87;1662084;85;21376;-78
2021/04/29 06:24:43;;;;;;;6.17;4.85;;;;;;;13.04;61.04;95575.35;1657737;85;21099;-78
2021/04/29 06:27:10;;;;;;;6.28;4.95;;;;;;;13.19;61.29;95575.03;1650228;85;21137;-77
2021/04/29 06:29:39;;;;;;;6.03;4.75;;;;;;;13.33;60.70;95570.44;1644681;85;21213;-79
2021/04/29 06:32:05;;;;;;;7.53;6.72;;;;;;;13.42;60.22;95570.45;1637540;86;21152;-79
2021/04/29 06:34:31;;;;;;;7.40;6.70;;;;;;;13.54;60.82;95567.40;1670152;85;21316;-79
2021/04/29 06:37:00;;;;;;;7.65;4.83;;;;;;;13.71;60.74;95562.37;1661885;85;21142;-79
2021/04/29 06:39:26;;;;;;;6.78;4.50;;;;;;;13.87;59.80;95560.95;1613290;87;21121;-78
2021/04/29 06:41:53;;;;;;;8.23;6.08;;;;;;;13.97;59.53;95558.58;1629563;86;21090;-79
2021/04/29 06:44:19;;;;;;;9.18;8.13;;;;;;;14.08;59.38;95554.70;1640449;85;21134;-77
2021/04/29 06:46:45;;;;;;;7.58;5.40;;;;;;;14.23;59.82;95552.98;1665890;85;21086;-78
2021/04/29 06:49:11;;;;;;;10.18;7.30;;;;;;;14.36;59.01;95548.86;1651380;85;21375;-79
2021/04/29 06:51:37;;;;;;;6.40;4.58;;;;;;;14.51;59.23;95551.59;1644844;85;21324;-79
2021/04/29 06:54:06;;;;;;;7.20;4.75;;;;;;;14.63;58.64;95555.78;1655560;85;21130;-78
2021/04/29 06:56:33;;;;;;;7.05;4.72;;;;;;;14.73;58.39;95559.14;1663119;85;21236;-77
2021/04/29 06:58:59;;;;;;;5.80;4.15;;;;;;;14.83;58.25;95556.77;1664586;85;21142;-79
2021/04/29 07:01:25;;;;;;;5.97;4.05;;;;;;;14.94;57.50;95553.84;1655452;85;21148;-77
2021/04/29 07:03:51;;;;;;;6.50;3.30;;;;;;;15.03;57.56;95563.47;1659165;85;21242;-80
2021/04/29 07:06:17;;;;;;;6.25;4.28;;;;;;;15.09;56.39;95565.95;1653583;85;21134;-78
2021/04/29 07:08:43;;;;;;;6.58;4.50;;;;;;;15.13;57.02;95557.95;1656477;85;21123;-78
2021/04/29 07:11:09;;;;;;;8.58;4.12;;;;;;;15.16;56.51;95560.09;1654676;85;21150;-79
2021/04/29 07:13:35;;;;;;;5.40;4.42;;;;;;;15.23;56.53;95558.65;1609665;87;21122;-78
2021/04/29 07:16:01;;;;;;;8.05;4.80;;;;;;;15.25;56.52;95553.98;1689275;84;21154;-79
2021/04/29 07:18:28;;;;;;;7.45;4.90;;;;;;;15.27;56.40;95550.61;1669535;84;21129;-79
2021/04/29 07:20:54;;;;;;;6.55;4.90;;;;;;;15.36;56.97;95559.71;1667655;84;21277;-79
2021/04/29 07:23:21;;;;;;;7.75;5.28;;;;;;;15.52;56.62;95558.98;1667754;84;21444;-78
2021/04/29 07:25:47;;;;;;;5.15;4.40;;;;;;;15.71;56.86;95561.46;1683666;84;21261;-78
2021/04/29 07:28:15;;;;;;;5.10;4.10;;;;;;;15.75;56.20;95559.95;1681327;84;21102;-78
2021/04/29 07:30:41;;;;;;;7.28;5.15;;;;;;;15.77;55.54;95552.14;1663968;84;21165;-79
2021/04/29 07:33:08;;;;;;;6.62;4.40;;;;;;;15.80;55.89;95550.91;1651573;85;21139;-78
2021/04/29 07:35:34;;;;;;;5.37;3.70;;;;;;;15.95;55.97;95547.25;1642347;85;21300;-79
2021/04/29 07:38:00;;;;;;;7.33;4.28;;;;;;;16.03;55.54;95549.98;1649409;85;21289;-78
2021/04/29 07:40:26;;;;;;;7.60;4.97;;;;;;;15.98;54.91;95547.29;1648163;86;21190;-78
2021/04/29 07:42:52;;;;;;;7.25;4.78;;;;;;;15.91;55.43;95551.34;1672197;84;21160;-78
2021/04/29 07:45:18;;;;;;;7.08;4.12;;;;;;;15.83;55.37;95552.53;1691385;84;21211;-78
2021/04/29 07:47:47;;;;;;;6.67;4.42;;;;;;;15.76;55.35;95557.10;1691534;84;21139;-78
2021/04/29 07:50:13;;;;;;;6.05;4.30;;;;;;;15.69;55.33;95562.21;1642811;84;21135;-78
2021/04/29 07:52:42;;;;;;;5.92;4.25;;;;;;;15.60;55.75;95566.49;1665542;84;21130;-79
2021/04/29 07:55:10;;;;;;;7.65;3.62;;;;;;;15.57;55.73;95562.21;1651875;86;21253;-79
2021/04/29 07:57:36;;;;;;;5.10;3.25;;;;;;;15.66;55.48;95556.93;1654669;86;21111;-79
2021/04/29 08:00:05;;;;;;;4.40;2.92;;;;;;;15.81;55.35;95552.49;1670859;84;21131;-81
2021/04/29 08:02:31;;;;;;;6.25;3.65;;;;;;;15.88;54.63;95553.12;1663015;84;21132;-79
2021/04/29 08:04:57;;;;;;;6.83;2.58;;;;;;;16.04;55.01;95554.99;1663476;84;21182;-79
2021/04/29 08:07:26;;;;;;;5.35;2.77;;;;;;;16.15;54.48;95554.14;1664283;84;21322;-81
2021/04/29 08:09:52;;;;;;;5.25;2.52;;;;;;;16.26;54.18;95565.58;1686120;84;21162;-79
2021/04/29 08:12:19;;;;;;;5.28;2.72;;;;;;;16.37;53.18;95556.06;1664238;84;21164;-79
2021/04/29 08:14:44;;;;;;;5.22;2.67;;;;;;;16.40;52.98;95562.14;1646058;84;21632;-80
2021/04/29 08:17:11;;;;;;;4.08;2.42;;;;;;;16.55;53.08;95551.09;1663612;84;21209;-79
2021/04/29 08:19:40;;;;;;;6.62;2.90;;;;;;;16.74;53.46;95551.15;1661556;86;21146;-79
2021/04/29 08:22:06;;;;;;;4.45;2.92;;;;;;;16.98;52.70;95547.83;1639912;86;21142;-80
2021/04/29 08:24:32;;;;;;;4.55;2.58;;;;;;;17.26;52.72;95550.31;1640556;84;21129;-82
2021/04/29 08:26:59;;;;;;;6.28;2.75;;;;;;;17.46;51.64;95545.03;1670176;84;21170;-80
2021/04/29 08:29:26;;;;;;;5.85;2.35;;;;;;;17.49;51.22;95549.27;1649530;84;21470;-79
2021/04/29 08:31:52;;;;;;;4.60;2.70;;;;;;;17.42;50.57;95551.81;1666554;84;21086;-81
2021/04/29 08:34:18;;;;;;;6.33;2.70;;;;;;;17.15;50.77;95544.65;1669145;84;21155;-79
2021/04/29 08:36:44;;;;;;;4.85;2.40;;;;;;;16.93;50.44;95549.08;1669142;84;21123;-79
2021/04/29 08:39:10;;;;;;;4.75;2.75;;;;;;;16.73;51.21;95549.05;1663808;84;21083;-79
2021/04/29 08:41:36;;;;;;;5.35;2.90;;;;;;;16.58;51.15;95538.81;1667265;84;21570;-79
2021/04/29 08:44:03;;;;;;;4.42;2.42;;;;;;;16.58;51.15;95538.81;1669565;84;21157;-79
2021/04/29 08:46:29;;;;;;;4.83;2.77;;;;;;;16.59;51.29;95548.27;1666061;84;21165;-80
2021/04/29 08:48:58;;;;;;;5.40;3.05;;;;;;;16.57;51.45;95542.47;1662373;84;21433;-82
2021/04/29 08:51:25;;;;;;;4.60;3.17;;;;;;;16.73;52.06;95550.87;1666842;84;21147;-79
2021/04/29 08:53:51;;;;;;;7.15;3.20;;;;;;;16.83;51.79;95543.68;1665437;84;21156;-80
2021/04/29 08:56:23;;;;;;;6.62;4.12;;;;;;;16.83;51.63;95551.03;1664723;84;21169;-79
2021/04/29 08:58:49;;;;;;;;;;;;;;;16.74;51.80;95552.46;1666487;84;21130;-80
2021/04/29 09:01:15;;;;;;;5.20;3.00;;;;;;;16.75;51.17;95553.53;1669779;84;20159;-80
2021/04/29 09:03:44;;;;;;;6.20;4.15;;;;;;;16.79;51.50;95555.18;1663369;84;21360;-82
2021/04/29 09:06:13;;;;;;;5.90;2.92;;;;;;;16.87;51.46;95544.78;1673140;84;21131;-80
2021/04/29 09:08:45;;;;;;;4.75;2.80;;;;;;;16.91;50.63;95549.81;1663986;84;21561;-80
2021/04/29 09:11:17;;;;;;;5.05;2.75;;;;;;;16.79;50.23;95550.73;1667705;84;22003;-82
2021/04/29 09:13:59;;;;;;;4.78;2.90;;;;;;;16.73;50.71;95563.47;1663798;84;21104;-80
2021/04/29 09:16:42;;;;;;;7.33;3.20;;;;;;;16.62;50.36;95563.03;1666889;84;21120;-80
2021/04/29 09:19:23;;;;;;;7.58;3.58;;;;;;;16.50;50.75;95549.99;1667369;84;21147;-81
2021/04/29 09:21:54;;;;;;;7.12;3.87;;;;;;;16.44;51.35;95557.52;1665567;84;21095;-82
2021/04/29 09:24:39;;;;;;;5.42;3.55;;;;;;;16.41;51.24;95563.20;1677484;84;21269;-80
2021/04/29 09:27:20;;;;;;;6.30;3.17;;;;;;;16.39;51.85;95561.34;1666415;84;21162;-80
2021/04/29 09:30:01;;;;;;;5.37;2.95;;;;;;;16.35;51.63;95562.06;1663664;84;21135;-80
2021/04/29 09:32:35;;;;;;;6.45;3.87;;;;;;;16.34;51.71;95559.96;1665746;84;21188;-82
2021/04/29 09:35:06;;;;;;;7.50;4.00;;;;;;;16.27;51.43;95554.58;1641111;84;21173;-82
2021/04/29 09:37:37;;;;;;;6.62;4.17;;;;;;;16.26;51.92;95562.16;1671684;84;21184;-80
2021/04/29 09:40:06;;;;;;;7.83;4.83;;;;;;;16.30;52.21;95558.05;1654764;84;21146;-80
2021/04/29 09:42:35;;;;;;;6.60;3.80;;;;;;;16.34;52.45;95553.92;1660138;84;21133;-82
2021/04/29 09:45:03;;;;;;;7.20;4.22;;;;;;;16.36;52.15;95559.20;1684059;83;21264;-79
2021/04/29 09:47:31;;;;;;;5.53;3.75;;;;;;;16.38;52.04;95561.58;1666972;84;21432;-81
2021/04/29 09:49:57;;;;;;;6.85;4.15;;;;;;;16.39;52.24;95554.78;1632856;84;21539;-80
2021/04/29 09:52:24;;;;;;;5.67;4.08;;;;;;;16.43;52.19;95549.37;1677923;82;21149;-79
2021/04/29 09:54:53;;;;;;;8.53;4.47;;;;;;;16.53;52.64;95549.23;1668787;84;21193;-80
2021/04/29 09:57:28;;;;;;;5.58;3.70;;;;;;;16.63;52.50;95547.57;1805694;78;23030;-81
2021/04/29 09:59:57;;;;;;;8.40;5.53;;;;;;;16.59;51.36;95544.33;1789416;78;21301;-79
2021/04/29 10:02:23;;;;;;;7.75;4.67;;;;;;;16.56;51.92;95551.38;1783486;77;21389;-79
2021/04/29 10:04:49;;;;;;;6.55;4.75;;;;;;;16.58;52.12;95551.92;1791065;78;21097;-78
2021/04/29 10:07:15;;;;;;;5.72;4.97;;;;;;;16.58;52.45;95552.72;1763377;78;21097;-80
2021/04/29 10:09:42;;;;;;;10.55;5.33;;;;;;;16.56;51.75;95560.55;1782690;78;21233;-78
2021/04/29 10:12:13;;;;;;;7.28;5.25;;;;;;;16.55;51.88;95553.20;1784050;78;21098;-80
2021/04/29 10:14:49;;;;;;;8.75;5.97;;;;;;;16.64;51.90;95556.23;1783952;78;21118;-79
2021/04/29 10:17:18;;;;;;;7.20;5.17;;;;;;;16.67;51.91;95560.51;1795395;78;21099;-79
2021/04/29 10:19:53;;;;;;;7.62;5.87;;;;;;;16.67;51.02;95560.51;1789752;78;21309;-81
2021/04/29 10:22:19;;;;;;;12.63;6.17;;;;;;;16.61;51.26;95561.97;1789231;78;21086;-79
2021/04/29 10:24:47;;;;;;;7.28;5.08;;;;;;;16.54;51.49;95562.11;1790848;80;21309;-80
2021/04/29 10:27:19;;;;;;;9.13;5.83;;;;;;;16.45;51.04;95565.66;1788176;78;21150;-78
2021/04/29 10:29:45;;;;;;;;;;;;;;;16.41;51.23;95555.34;1791525;78;21091;-77
2021/04/29 10:32:13;;;;;;;8.80;6.17;;;;;;;16.47;51.42;95552.30;1792460;78;20109;-82
2021/04/29 10:34:47;;;;;;;9.18;6.87;;;;;;;16.69;52.19;95549.25;1785973;78;21110;-80
2021/04/29 10:37:19;;;;;;;9.58;6.12;;;;;;;16.79;51.38;95557.80;1785764;78;21106;-79
2021/04/29 10:39:55;;;;;;;9.80;6.60;;;;;;;16.72;51.12;95557.16;1778864;78;21213;-81
2021/04/29 10:42:28;;;;;;;10.05;6.47;;;;;;;16.80;51.62;95559.39;1789388;78;21356;-79
2021/04/29 10:45:08;;;;;;;10.15;6.62;;;;;;;17.02;51.57;95557.59;1788896;78;21051;-78
2021/04/29 10:47:34;;;;;;;13.32;7.58;;;;;;;17.32;51.89;95562.98;1781925;78;21051;-80
2021/04/29 10:50:15;;;;;;;9.80;6.85;;;;;;;17.62;51.55;95565.18;1790567;78;21075;-81
2021/04/29 10:52:57;;;;;;;11.68;7.37;;;;;;;17.88;51.42;95559.17;1785197;80;21918;-81
2021/04/29 10:55:30;;;;;;;12.00;8.25;;;;;;;18.05;50.82;95558.28;1789532;78;21379;-80
2021/04/29 10:57:57;;;;;;;8.10;6.58;;;;;;;18.08;49.90;95565.70;1773099;79;21123;-80
2021/04/29 11:00:26;;;;;;;12.15;8.53;;;;;;;18.13;50.12;95552.59;1778355;78;21111;-79
2021/04/29 11:03:02;;;;;;;10.60;7.67;;;;;;;18.15;49.09;95561.02;1780050;79;21096;-80
2021/04/29 11:05:28;;;;;;;10.23;6.97;;;;;;;18.11;48.84;95550.74;1765961;79;21076;-79
2021/04/29 11:08:09;;;;;;;8.93;7.40;;;;;;;18.16;49.10;95546.31;1774834;79;21095;-80
2021/04/29 11:10:39;;;;;;;9.55;7.30;;;;;;;18.33;49.38;95554.61;1776498;79;21190;-79
2021/04/29 11:13:05;;;;;;;9.10;7.37;;;;;;;18.47;48.93;95546.05;1774165;79;21318;-81
2021/04/29 11:15:38;;;;;;;7.67;6.85;;;;;;;18.58;49.10;95542.47;1769737;79;21118;-81
2021/04/29 11:18:14;;;;;;;10.35;6.70;;;;;;;18.75;48.65;95556.83;1760050;80;21082;-80
2021/04/29 11:20:58;;;;;;;8.63;6.50;;;;;;;18.85;48.87;95550.30;1773156;78;21935;-78
2021/04/29 11:23:38;;;;;;;8.60;6.58;;;;;;;18.92;49.08;95554.03;1770050;79;21103;-79
2021/04/29 11:26:10;;;;;;;8.85;6.95;;;;;;;18.83;46.76;95554.23;1773551;79;21103;-79
2021/04/29 11:28:36;;;;;;;11.00;7.87;;;;;;;18.78;46.96;95547.63;1767355;79;21082;-79
2021/04/29 11:31:04;;;;;;;9.38;7.33;;;;;;;18.58;47.18;95548.25;1781468;79;21321;-79
2021/04/29 11:33:35;;;;;;;13.35;7.20;;;;;;;18.59;47.63;95550.63;1773795;79;21208;-81
2021/04/29 11:36:18;;;;;;;10.10;8.00;;;;;;;18.52;47.76;95566.33;1756569;79;21090;-78
2021/04/29 11:38:53;;;;;;;10.48;7.80;;;;;;;18.40;47.78;95559.16;1767182;79;21198;-79
2021/04/29 11:41:20;;;;;;;9.93;7.20;;;;;;;18.34;48.43;95560.14;1769614;79;21233;-78